• Join FlightAware (Why Join?)
  • Login
  • US Flag 
04:52AM EDT


 

Airport Tracker/Info


-or-


 

Live Flight TrackerFlight Track Log ✈ FIV571 ✈ 20-Aug-2013 ✈ KMCO - KMDW

Flight Track Log - Related Links

Times and Time Zones

All times are in EDT time to prevent confusion due to time zone crossing. See the FIV571 flight status page for this flight to view local times or setup timezone preferences in your user account.

Time Position Orientation Groundspeed Altitude Reporting Facility
EDT Latitude Longitude Course Direction KTS MPH feet Rate Location/Type
03:40PM 28.4167 -81.3333 192° South 138 159 500  Level Orlando TRACON
03:41PM 28.3500 -81.3500 192° South 221 254 4,900 3,240 Climbing Orlando TRACON
03:42PM 28.3667 -81.4167 286° West 239 275 8,000 3,180 Climbing Orlando TRACON
03:43PM 28.4167 -81.4667 319° Northwest 252 290 11,300 2,460 Climbing Orlando TRACON
03:45PM 28.5108 -81.6097 307° West 270 311 16,200 2,580 Climbing Jacksonville Center
03:46PM 28.5472 -81.6967 295° West 291 335 19,600 2,880 Climbing Jacksonville Center
03:47PM 28.5814 -81.7792 295° West 297 342 22,000 1,680 Climbing Jacksonville Center
03:48PM 28.6031 -81.8781 284° West 302 348 23,000 900 Climbing Jacksonville Center
03:49PM 28.6225 -81.9961 281° West 343 395 23,800 1,140 Climbing Jacksonville Center
03:50PM 28.6358 -82.1192 277° West 381 438 25,300 1,500 Climbing Jacksonville Center
03:51PM 28.6636 -82.2372 285° West 393 452 26,800 1,740 Climbing Jacksonville Center
03:52PM 28.7456 -82.3172 319° Northwest 373 429 28,800 1,980 Climbing Jacksonville Center
03:53PM 28.8375 -82.3900 325° Northwest 359 413 30,800 1,980 Climbing Jacksonville Center
03:54PM 28.9192 -82.4633 322° Northwest 365 420 32,800 1,560 Climbing Jacksonville Center
03:55PM 29.0008 -82.5317 324° Northwest 370 426 34,000 600 Climbing Jacksonville Center
03:56PM 29.0889 -82.6075 323° Northwest 376 433 34,000  Level Jacksonville Center
03:57PM 29.1828 -82.6881 323° Northwest 399 459 34,000  Level Jacksonville Center
03:58PM 29.2769 -82.7711 322° Northwest 420 483 34,000  Level Jacksonville Center
03:59PM 29.3856 -82.8258 336° Northwest 426 490 34,000  Level Jacksonville Center
04:00PM 29.5003 -82.8831 337° Northwest 425 489 34,000  Level Jacksonville Center
04:01PM 29.6089 -82.9283 340° North 430 495 34,000  Level Jacksonville Center
04:02PM 29.7236 -82.9619 346° North 425 489 34,000  Level Jacksonville Center
04:03PM 29.8364 -83.0100 340° North 419 482 34,000 900 Level Jacksonville Center
04:04PM 29.9428 -83.0556 340° North 422 486 35,800 960 Climbing Jacksonville Center
04:05PM 30.0367 -83.0942 340° North 393 452 36,000 480 Climbing Jacksonville Center
04:06PM 30.1494 -83.1425 340° North 403 464 36,800 1,140 Climbing Jacksonville Center
04:07PM 30.2517 -83.1883 339° North 403 464 38,300 1,440 Climbing Jacksonville Center
04:08PM 30.3581 -83.2272 342° North 403 464 39,700 840 Climbing Jacksonville Center
04:09PM 30.4644 -83.2564 347° North 398 458 40,000 120 Climbing Jacksonville Center
04:10PM 30.5769 -83.2883 346° North 403 464 40,000  Level Jacksonville Center
04:11PM 30.6917 -83.3203 347° North 409 471 40,000  Level Jacksonville Center
04:12PM 30.8044 -83.3522 346° North 415 478 40,000  Level Jacksonville Center
04:13PM 30.9253 -83.3867 346° North 410 472 40,000  Level Jacksonville Center
04:14PM 31.0400 -83.4164 347° North 415 478 40,000  Level Jacksonville Center
04:15PM 31.1528 -83.4483 346° North 415 478 40,000  Level Jacksonville Center
04:18PM 31.4117 -83.5231 346° North 425 489 40,000  Level Atlanta Center
04:19PM 31.5244 -83.5542 347° North 411 473 40,000  Level Atlanta Center
04:20PM 31.6267 -83.5778 349° North 411 473 40,000  Level Atlanta Center
04:21PM 31.7417 -83.6164 344° North 411 473 40,000  Level Atlanta Center
04:22PM 31.8650 -83.6475 348° North 428 493 40,000  Level Atlanta Center
04:23PM 31.9797 -83.6814 346° North 428 493 40,000  Level Atlanta Center
04:24PM 32.0928 -83.7153 346° North 428 493 40,000  Level Atlanta Center
04:25PM 32.2075 -83.7492 346° North 423 487 40,000  Level Atlanta Center
04:26PM 32.3244 -83.7833 346° North 423 487 40,000  Level Atlanta Center
04:27PM 32.4414 -83.8197 345° North 423 487 40,000  Level Atlanta Center
04:28PM 32.5583 -83.8517 347° North 423 487 40,000  Level Atlanta Center
04:29PM 32.6733 -83.8858 346° North 423 487 40,000  Level Atlanta Center
04:30PM 32.7881 -83.9203 346° North 428 493 40,000  Level Atlanta Center
04:31PM 32.9031 -83.9522 347° North 428 493 40,000  Level Atlanta Center
04:32PM 33.0197 -83.9867 346° North 423 487 40,000  Level Atlanta Center
04:33PM 33.1408 -84.0239 346° North 412 474 40,000  Level Atlanta Center
04:34PM 33.2600 -84.0586 346° North 417 480 40,000  Level Atlanta Center
04:35PM 33.3725 -84.0936 345° North 417 480 40,000  Level Atlanta Center
04:36PM 33.4875 -84.1236 348° North 417 480 40,000  Level Atlanta Center
04:37PM 33.6000 -84.1586 345° North 417 480 40,000  Level Atlanta Center
04:38PM 33.7147 -84.1911 347° North 417 480 40,000  Level Atlanta Center
04:39PM 33.8297 -84.2289 345° North 417 480 40,000  Level Atlanta Center
04:40PM 33.9422 -84.2642 345° North 417 480 40,000  Level Atlanta Center
04:41PM 34.0592 -84.2969 347° North 422 486 40,000  Level Atlanta Center
04:42PM 34.1800 -84.3300 347° North 435 501 40,000  Level Atlanta Center
04:43PM 34.2969 -84.3656 346° North 429 494 40,000  Level Atlanta Center
04:44PM 34.3969 -84.3964 346° North 422 486 40,000  Level Atlanta Center
04:45PM 34.5136 -84.4319 346° North 422 486 40,000  Level Atlanta Center
04:46PM 34.6264 -84.4678 345° North 412 474 40,000  Level Atlanta Center
04:47PM 34.7408 -84.4989 347° North 417 480 40,000  Level Atlanta Center
04:48PM 34.8492 -84.5375 344° North 404 465 40,000  Level Atlanta Center
04:49PM 34.9619 -84.5736 345° North 398 458 40,000  Level Atlanta Center
04:50PM 35.0764 -84.6072 346° North 403 464 40,000  Level Atlanta Center
04:51PM 35.1931 -84.6436 346° North 415 478 40,000  Level Atlanta Center
04:52PM 35.3078 -84.6775 346° North 415 478 40,000  Level Atlanta Center
04:53PM 35.4244 -84.7142 346° North 420 483 40,000  Level Atlanta Center
04:55PM 35.7050 -84.7994 346° North 427 491 40,000  Level Indianapolis Center
04:56PM 35.8253 -84.8389 345° North 446 513 40,000  Level Indianapolis Center
04:57PM 35.9639 -84.8836 345° North 440 506 40,000  Level Indianapolis Center
04:58PM 36.0767 -84.9169 347° North 442 509 40,000  Level Indianapolis Center
04:59PM 36.1947 -84.9556 345° North 440 506 40,000  Level Indianapolis Center
05:00PM 36.3350 -84.9994 346° North 434 499 40,000  Level Indianapolis Center
05:01PM 36.4519 -85.0358 346° North 433 498 40,000  Level Indianapolis Center
05:02PM 36.5725 -85.0619 350° North 437 503 40,000  Level Indianapolis Center
05:03PM 36.6925 -85.0908 349° North 440 506 40,000  Level Indianapolis Center
05:04PM 36.8144 -85.1194 349° North 444 511 40,000  Level Indianapolis Center
05:05PM 36.9353 -85.1489 349° North 441 507 40,000  Level Indianapolis Center
05:06PM 37.0608 -85.1783 349° North 438 504 40,000  Level Indianapolis Center
05:07PM 37.1808 -85.2086 349° North 439 505 40,000  Level Indianapolis Center
05:08PM 37.3236 -85.2428 349° North 445 512 40,000  Level Indianapolis Center
05:09PM 37.4456 -85.2714 349° North 444 511 40,000  Level Indianapolis Center
05:10PM 37.5667 -85.3025 348° North 441 507 40,000  Level Indianapolis Center
05:12PM 37.6861 -85.3317 349° North 436 502 40,000  Level Indianapolis Center
05:13PM 37.8050 -85.3614 349° North 434 499 40,000  Level Indianapolis Center
05:14PM 37.9339 -85.3922 349° North 441 507 40,000  Level Indianapolis Center
05:15PM 38.0467 -85.4383 342° North 428 493 40,000  Level Indianapolis Center
05:16PM 38.1622 -85.4842 343° North 434 499 40,000  Level Indianapolis Center
05:17PM 38.2989 -85.5092 352° North 420 483 40,000  Level Indianapolis Center
05:18PM 38.4178 -85.4811 10° North 430 495 40,000  Level Indianapolis Center
05:19PM 38.5353 -85.4508 11° North 429 494 40,000 -120 Level Indianapolis Center
05:20PM 38.6447 -85.4233 11° North 434 499 39,800 -1,260 Descending Indianapolis Center
05:21PM 38.7906 -85.3883 11° North 445 512 37,500 -2,100 Descending Indianapolis Center
05:22PM 38.9181 -85.3617 North 462 532 35,500 -1,800 Descending Indianapolis Center
05:23PM 39.0422 -85.3331 10° North 458 527 33,900 -1,260 Descending Indianapolis Center
05:24PM 39.1611 -85.3542 352° North 435 501 33,000 -960 Descending Indianapolis Center
05:25PM 39.2733 -85.4136 338° Northwest 437 503 32,000 -1,500 Descending Indianapolis Center
05:26PM 39.4139 -85.4842 339° North 452 520 30,000 -1,380 Descending Indianapolis Center
05:27PM 39.5267 -85.5417 339° North 441 507 29,200 -540 Descending Indianapolis Center
05:28PM 39.6394 -85.5992 339° North 438 504 28,900 -1,020 Descending Indianapolis Center
05:29PM 39.7522 -85.6569 339° North 440 506 27,100 -1,800 Descending Indianapolis Center
05:30PM 39.8711 -85.7178 339° North 457 526 25,300 -1,500 Descending Indianapolis Center
05:31PM 40.0114 -85.7889 339° North 456 525 24,000 -660 Descending Indianapolis Center
05:32PM 40.1278 -85.8497 338° Northwest 455 524 24,000  Level Indianapolis Center
05:33PM 40.2433 -85.9089 339° North 452 520 24,000  Level Indianapolis Center
05:34PM 40.3572 -85.9678 338° Northwest 446 513 24,000 -300 Level Indianapolis Center
05:35PM 40.4711 -86.0281 338° Northwest 445 512 23,400 -1,500 Descending Indianapolis Center
05:36PM 40.6122 -86.0592 350° North 436 502 21,000 -2,100 Descending Indianapolis Center
05:37PM 40.7303 -86.0525 North 427 491 19,100 -1,800 Descending Indianapolis Center
05:38PM 40.8297 -86.1058 338° Northwest 404 465 17,300 -1,920 Descending Indianapolis Center
05:39PM 40.8981 -86.2106 311° West 381 438 15,200 -2,040 Descending Indianapolis Center
05:40PM 40.9653 -86.3092 312° West 368 423 13,200 -2,040 Descending Indianapolis Center
05:41PM 41.0450 -86.4294 311° West 366 421 11,100 -1,500 Descending Indianapolis Center
05:43PM 41.0925 -86.5344 301° West 347 399 10,200 -540 Descending Indianapolis Center
05:44PM 41.1364 -86.6400 299° West 337 388 10,000 -180 Descending Indianapolis Center
05:45PM 41.2069 -86.7281 317° Northwest 343 395 9,900 -120 Descending Indianapolis Center
05:46PM 41.2919 -86.8481 313° West 336 387 9,800 -540 Descending Chicago Center
05:47PM 41.3456 -86.9236 313° West 287 330 8,700 -1,260 Descending Chicago Center
05:48PM 41.4089 -87.0103 314° West 275 316 7,300 -1,320 Descending Chicago Center
05:49PM 41.4611 -87.0828 314° West 275 316 6,000 -660 Descending Chicago Center
05:50PM 41.5019 -87.1672 303° West 275 316 6,000 -420 Level Chicago Center
05:51PM 41.5336 -87.2522 296° West 265 305 5,200 -1,020 Descending Chicago Center
05:52PM 41.5681 -87.3386 298° West 264 304 4,000 -600 Descending Chicago Center
05:53PM 41.6039 -87.4306 298° West 249 287 4,000  Level Chicago Center
05:54PM 41.6314 -87.5011 298° West 230 265 4,000  Level Chicago Center
05:55PM 41.6561 -87.5583 300° West 200 230 4,000 -360 Level Chicago Center
05:56PM 41.6844 -87.6156 304° West 189 217 3,300 -960 Descending Chicago Center
05:57PM 41.7283 -87.6725 316° Northwest 187 215 2,100 -1,020 Descending Chicago Center
05:58PM 41.7600 -87.7172 314° West 179 206 1,200 -540 Descending Chicago Center
05:59PM 41.7847 -87.7511 314° West 168 193 1,000 -240 Descending Chicago Center